Time;durP1;ratioP1;P1;durP2;ratioP2;P2;SDS_P1;SDS_P2;PMS_P1;PMS_P2;Temp;Humidity;BMP_temperature;BMP_pressure;BME280_temperature;BME280_humidity;BME280_pressure;Samples;Min_cycle;Max_cycle;Signal;HPM_P1;HPM_P2
2024/04/22 00:00:36;;;;;;;2.67;2.30;;;;;;;5.52;100.00;102694.31;5471821;26;19995;-38
2024/04/22 00:03:02;;;;;;;2.80;2.20;;;;;;;5.50;100.00;102693.59;5471781;26;20104;-38
2024/04/22 00:05:27;;;;;;;3.00;1.90;;;;;;;5.44;100.00;102692.38;5462025;26;19995;-38
2024/04/22 00:07:53;;;;;;;2.10;1.63;;;;;;;5.47;100.00;102681.34;5456129;26;20445;-38
2024/04/22 00:10:18;;;;;;;2.60;2.20;;;;;;;5.43;100.00;102675.44;5456742;26;20007;-39
2024/04/22 00:12:44;;;;;;;2.70;2.00;;;;;;;5.42;100.00;102680.97;5455744;26;20010;-39
2024/04/22 00:15:09;;;;;;;2.40;2.20;;;;;;;5.35;100.00;102688.75;5456745;26;20003;-37
2024/04/22 00:17:34;;;;;;;2.70;1.93;;;;;;;5.33;100.00;102690.75;5455951;26;20010;-37
2024/04/22 00:20:00;;;;;;;2.57;2.13;;;;;;;5.38;100.00;102687.63;5456028;26;20485;-38
2024/04/22 00:22:25;;;;;;;1.60;1.37;;;;;;;5.25;100.00;102665.69;5456012;26;20439;-38
2024/04/22 00:24:50;;;;;;;2.83;2.17;;;;;;;5.36;100.00;102692.28;5455895;26;20013;-38
2024/04/22 00:27:16;;;;;;;3.07;2.30;;;;;;;5.36;100.00;102682.38;5455637;26;20005;-38
2024/04/22 00:29:41;;;;;;;4.07;2.30;;;;;;;5.31;100.00;102686.53;5456060;26;20026;-38
2024/04/22 00:32:06;;;;;;;2.43;2.23;;;;;;;5.16;100.00;102688.88;5455801;26;20001;-38
2024/04/22 00:34:32;;;;;;;3.90;1.90;;;;;;;5.15;100.00;102676.47;5455979;26;20313;-38
2024/04/22 00:36:57;;;;;;;2.67;2.20;;;;;;;5.13;100.00;102683.84;5455446;26;20005;-38
2024/04/22 00:39:23;;;;;;;2.67;2.13;;;;;;;5.01;100.00;102679.66;5455533;26;20002;-38
2024/04/22 00:41:48;;;;;;;3.70;2.05;;;;;;;5.09;100.00;102687.81;5455405;26;20134;-38
2024/04/22 00:44:13;;;;;;;3.17;2.37;;;;;;;5.02;100.00;102692.06;5455685;26;20010;-38
2024/04/22 00:46:39;;;;;;;2.10;1.80;;;;;;;5.07;100.00;102690.63;5455121;26;20343;-38
2024/04/22 00:49:04;;;;;;;3.10;2.25;;;;;;;4.91;100.00;102677.88;5455827;26;20014;-38
2024/04/22 00:51:31;;;;;;;2.87;2.30;;;;;;;4.91;100.00;102691.25;5454932;26;20006;-38
2024/04/22 00:53:57;;;;;;;3.63;2.30;;;;;;;4.91;100.00;102683.22;5455728;26;20595;-38
2024/04/22 00:56:28;;;;;;;2.60;2.08;;;;;;;4.95;100.00;102693.66;5455733;26;20454;-39
2024/04/22 00:58:56;;;;;;;2.95;2.30;;;;;;;4.80;100.00;102667.34;5455979;26;19998;-38
2024/04/22 01:01:22;;;;;;;2.53;2.10;;;;;;;4.90;100.00;102684.22;5455635;26;20323;-39
2024/04/22 01:03:47;;;;;;;2.80;2.17;;;;;;;4.83;100.00;102672.41;5455662;26;20009;-38
2024/04/22 01:06:13;;;;;;;3.77;2.47;;;;;;;4.78;100.00;102674.69;5455640;26;20006;-38
2024/04/22 01:08:38;;;;;;;3.20;2.47;;;;;;;4.84;100.00;102686.66;5455559;26;19999;-38
2024/04/22 01:11:03;;;;;;;3.27;2.20;;;;;;;4.78;100.00;102680.06;5455440;26;19995;-38
2024/04/22 01:13:29;;;;;;;2.43;1.90;;;;;;;4.72;100.00;102688.69;5455413;26;20006;-38
2024/04/22 01:15:54;;;;;;;3.10;2.67;;;;;;;4.63;100.00;102673.47;5454730;26;20007;-38
2024/04/22 01:18:19;;;;;;;3.00;2.47;;;;;;;4.67;100.00;102676.72;5454230;26;20006;-38
2024/04/22 01:20:45;;;;;;;4.87;2.63;;;;;;;4.64;100.00;102677.88;5453512;26;19995;-38
2024/04/22 01:23:11;;;;;;;3.45;3.00;;;;;;;4.60;100.00;102676.47;5455040;26;20348;-38
2024/04/22 01:25:45;;;;;;;3.63;3.13;;;;;;;4.62;100.00;102659.22;5455333;26;19991;-38
2024/04/22 01:28:10;;;;;;;3.17;2.60;;;;;;;4.55;100.00;102665.34;5454722;26;20462;-38
2024/04/22 01:30:35;;;;;;;3.07;2.50;;;;;;;4.62;100.00;102675.31;5454981;26;20010;-38
2024/04/22 01:33:01;;;;;;;3.37;2.40;;;;;;;4.70;100.00;102679.09;5454566;26;20464;-38
2024/04/22 01:35:26;;;;;;;3.00;2.70;;;;;;;4.55;100.00;102668.88;5455236;26;19995;-38
2024/04/22 01:37:52;;;;;;;3.53;2.70;;;;;;;4.64;100.00;102673.34;5454961;26;20228;-38
2024/04/22 01:40:17;;;;;;;3.50;2.20;;;;;;;4.60;100.00;102676.47;5455197;26;19999;-38
2024/04/22 01:42:42;;;;;;;3.80;2.47;;;;;;;4.60;100.00;102660.38;5454842;26;19991;-38
2024/04/22 01:45:08;;;;;;;4.37;2.47;;;;;;;4.65;100.00;102669.66;5454884;26;19995;-38
2024/04/22 01:47:34;;;;;;;2.88;2.58;;;;;;;4.52;100.00;102657.59;5454667;26;19995;-38
2024/04/22 01:49:59;;;;;;;2.95;2.28;;;;;;;4.49;100.00;102642.66;5454642;26;19999;-38
2024/04/22 01:52:25;;;;;;;3.47;2.47;;;;;;;4.59;100.00;102656.88;5454508;26;20351;-38
2024/04/22 01:54:50;;;;;;;3.03;2.23;;;;;;;4.58;100.00;102646.28;5454697;26;19999;-38
2024/04/22 01:57:15;;;;;;;3.10;2.70;;;;;;;4.57;100.00;102652.63;5454336;26;19999;-38
2024/04/22 01:59:41;;;;;;;2.90;2.10;;;;;;;4.55;100.00;102649.28;5454882;26;20006;-38
2024/04/22 02:02:06;;;;;;;3.10;2.50;;;;;;;4.41;100.00;102625.63;5452620;26;20006;-38
2024/04/22 02:04:31;;;;;;;2.60;2.40;;;;;;;4.45;100.00;102638.59;5454211;26;19995;-38
2024/04/22 02:06:57;;;;;;;2.27;2.07;;;;;;;4.55;100.00;102646.59;5454218;26;20307;-38
2024/04/22 02:09:22;;;;;;;3.27;2.47;;;;;;;4.56;100.00;102651.78;5454148;26;19995;-38
2024/04/22 02:11:47;;;;;;;2.90;2.60;;;;;;;4.46;100.00;102637.59;5454122;26;20014;-38
2024/04/22 02:14:13;;;;;;;3.80;2.80;;;;;;;4.45;100.00;102640.44;5454584;26;20434;-38
2024/04/22 02:16:38;;;;;;;3.07;2.40;;;;;;;4.50;100.00;102640.84;5453727;26;20003;-38
2024/04/22 02:19:04;;;;;;;5.68;2.58;;;;;;;4.54;100.00;102639.53;5454228;26;20002;-38
2024/04/22 02:21:29;;;;;;;4.22;2.63;;;;;;;4.53;100.00;102643.19;5454150;26;20036;-38
2024/04/22 02:23:55;;;;;;;3.10;2.40;;;;;;;4.55;100.00;102643.91;5453866;26;19994;-38
2024/04/22 02:26:20;;;;;;;3.70;2.92;;;;;;;4.53;100.00;102638.69;5453872;26;20039;-38
2024/04/22 02:28:53;;;;;;;2.80;2.50;;;;;;;4.50;100.00;102639.00;5453689;26;20130;-38
2024/04/22 02:31:19;;;;;;;5.40;2.50;;;;;;;4.44;100.00;102638.72;5453799;26;20315;-38
2024/04/22 02:33:45;;;;;;;3.00;2.42;;;;;;;4.42;100.00;102635.34;5453893;26;20017;-38
2024/04/22 02:36:11;;;;;;;;;;;;;;;4.55;100.00;102636.72;5454843;26;20032;-38
2024/04/22 02:38:36;;;;;;;4.13;2.40;;;;;;;4.44;100.00;102628.88;5453908;26;19925;-38
2024/04/22 02:41:01;;;;;;;4.03;2.10;;;;;;;4.41;100.00;102628.31;5453279;26;20264;-38
2024/04/22 02:43:27;;;;;;;4.33;2.70;;;;;;;4.38;100.00;102629.44;5453561;26;20353;-38
2024/04/22 02:45:52;;;;;;;2.90;2.40;;;;;;;4.35;100.00;102614.53;5453583;26;20668;-38
2024/04/22 02:48:17;;;;;;;3.13;2.30;;;;;;;4.35;100.00;102614.53;5453175;26;20067;-38
2024/04/22 02:50:43;;;;;;;3.17;2.37;;;;;;;4.30;100.00;102615.97;5454005;26;20002;-38
2024/04/22 02:53:08;;;;;;;3.07;2.77;;;;;;;4.25;100.00;102613.72;5453460;26;20080;-38
2024/04/22 02:55:33;;;;;;;3.80;2.53;;;;;;;4.20;100.00;102610.63;5454008;26;20002;-38
2024/04/22 02:57:59;;;;;;;3.03;2.50;;;;;;;4.20;100.00;102609.75;5452958;26;20040;-38
2024/04/22 03:00:25;;;;;;;2.87;2.60;;;;;;;4.16;100.00;102614.59;5453905;26;19995;-38
2024/04/22 03:02:50;;;;;;;;;;;;;;;4.28;100.00;102620.59;5453501;26;20051;-38
2024/04/22 03:05:16;;;;;;;4.33;2.77;;;;;;;4.07;100.00;102613.63;5453406;26;19931;-38
2024/04/22 03:07:42;;;;;;;3.08;2.53;;;;;;;4.03;100.00;102619.41;5452759;26;20217;-38
2024/04/22 03:10:07;;;;;;;3.58;2.90;;;;;;;4.01;100.00;102616.03;5453030;26;19995;-38
2024/04/22 03:12:32;;;;;;;2.83;2.53;;;;;;;4.07;100.00;102626.16;5453208;26;20327;-38
2024/04/22 03:14:58;;;;;;;3.30;2.90;;;;;;;4.06;100.00;102629.84;5453415;26;20434;-38
2024/04/22 03:17:24;;;;;;;3.92;2.88;;;;;;;4.03;100.00;102628.28;5453249;26;19995;-38
2024/04/22 03:19:50;;;;;;;4.35;2.92;;;;;;;3.99;100.00;102624.19;5452906;26;20184;-38
2024/04/22 03:22:16;;;;;;;5.43;3.22;;;;;;;3.87;100.00;102604.78;5452508;26;20466;-38
2024/04/22 03:24:41;;;;;;;2.97;2.65;;;;;;;3.92;100.00;102614.22;5453070;26;20019;-38
2024/04/22 03:27:07;;;;;;;3.42;3.13;;;;;;;3.95;100.00;102624.63;5452794;26;20036;-38
2024/04/22 03:29:32;;;;;;;4.35;3.25;;;;;;;3.82;100.00;102604.38;5452842;26;19992;-38
2024/04/22 03:31:58;;;;;;;3.95;2.92;;;;;;;3.97;100.00;102615.47;5452825;26;20064;-38
2024/04/22 03:34:23;;;;;;;3.47;3.17;;;;;;;3.96;100.00;102618.31;5453175;26;19998;-38
2024/04/22 03:36:48;;;;;;;3.97;2.97;;;;;;;3.84;100.00;102597.03;5452371;26;20000;-38
2024/04/22 03:39:14;;;;;;;4.87;3.70;;;;;;;3.82;100.00;102603.53;5453225;26;20299;-38
2024/04/22 03:41:39;;;;;;;4.67;3.60;;;;;;;3.84;100.00;102596.19;5455576;26;19991;-37
2024/04/22 03:44:04;;;;;;;5.20;3.73;;;;;;;3.85;100.00;102606.75;5457139;26;19995;-37
2024/04/22 03:51:57;;;;;;;4.80;3.28;;;;;;;3.83;100.00;102605.22;5457312;26;20010;-38
2024/04/22 03:54:22;;;;;;;4.00;3.53;;;;;;;3.79;100.00;102595.78;5456601;26;20329;-38
2024/04/22 03:56:48;;;;;;;5.67;3.77;;;;;;;3.75;100.00;102597.06;5456380;26;20007;-38
2024/04/22 03:59:13;;;;;;;4.43;4.00;;;;;;;3.71;100.00;102590.28;5456365;26;19995;-38
2024/04/22 04:01:38;;;;;;;4.50;3.37;;;;;;;3.76;100.00;102602.28;5456247;26;19991;-38
2024/04/22 04:04:04;;;;;;;4.73;3.70;;;;;;;3.65;100.00;102602.41;5456898;26;20002;-38
2024/04/22 04:06:29;;;;;;;4.57;3.40;;;;;;;3.67;100.00;102600.47;5456229;26;19995;-38
2024/04/22 04:08:54;;;;;;;5.53;3.60;;;;;;;3.65;100.00;102596.22;5456478;26;19991;-38
2024/04/22 04:11:25;;;;;;;3.53;3.07;;;;;;;3.69;100.00;102606.50;5456358;26;20224;-38
2024/04/22 04:13:51;;;;;;;4.78;4.15;;;;;;;3.67;100.00;102603.13;5455929;26;19995;-38
2024/04/22 04:16:16;;;;;;;5.68;3.72;;;;;;;3.64;100.00;102613.28;5455929;26;20334;-38
2024/04/22 04:18:42;;;;;;;4.70;4.10;;;;;;;3.60;100.00;102602.00;5456754;26;20025;-38
2024/04/22 04:21:07;;;;;;;4.27;3.77;;;;;;;3.48;100.00;102597.81;5456263;26;20015;-38
2024/04/22 04:23:33;;;;;;;4.70;4.15;;;;;;;3.55;100.00;102601.59;5455596;26;20456;-38
2024/04/22 04:25:58;;;;;;;4.53;3.50;;;;;;;3.53;100.00;102592.88;5455762;26;20006;-38
2024/04/22 04:28:27;;;;;;;3.90;3.50;;;;;;;3.58;100.00;102604.00;5456003;26;20296;-38
2024/04/22 04:31:00;;;;;;;6.60;3.97;;;;;;;3.55;100.00;102606.94;5453988;26;20014;-38
2024/04/22 04:33:26;;;;;;;5.05;3.72;;;;;;;3.54;100.00;102602.56;5455361;26;19995;-38
2024/04/22 04:36:01;;;;;;;4.75;3.60;;;;;;;3.58;100.00;102610.19;5455786;26;20009;-38
2024/04/22 04:38:27;;;;;;;5.25;4.00;;;;;;;3.44;100.00;102591.03;5455349;26;20437;-38
2024/04/22 04:40:52;;;;;;;;;;;;;;;3.65;100.00;102607.78;5455996;26;19994;-38
2024/04/22 04:43:18;;;;;;;4.18;3.70;;;;;;;3.54;100.00;102615.94;5455041;26;19931;-38
2024/04/22 04:45:43;;;;;;;5.80;3.83;;;;;;;3.55;100.00;102606.94;5455149;26;20404;-38
2024/04/22 04:48:08;;;;;;;4.60;3.57;;;;;;;3.54;100.00;102603.41;5455460;26;20013;-38
2024/04/22 04:50:34;;;;;;;4.23;3.80;;;;;;;3.50;100.00;102611.88;5455212;26;20058;-38
2024/04/22 04:52:59;;;;;;;4.53;3.90;;;;;;;3.54;100.00;102608.78;5455165;26;20063;-38
2024/04/22 04:55:24;;;;;;;3.53;3.23;;;;;;;3.49;100.00;102599.47;5455826;26;20628;-38
2024/04/22 04:57:50;;;;;;;4.00;2.80;;;;;;;3.65;100.00;102615.78;5455420;26;20045;-38
2024/04/22 05:00:15;;;;;;;5.37;3.53;;;;;;;3.66;100.00;102614.84;5456001;26;20002;-38
2024/04/22 05:02:41;;;;;;;4.05;3.60;;;;;;;3.64;100.00;102613.28;5455253;26;20022;-38
2024/04/22 05:05:06;;;;;;;5.20;3.30;;;;;;;3.67;100.00;102615.69;5455040;26;19991;-38
2024/04/22 05:07:31;;;;;;;4.70;3.47;;;;;;;3.65;100.00;102602.41;5455271;26;19990;-38
2024/04/22 05:09:57;;;;;;;3.57;3.27;;;;;;;3.77;100.00;102613.81;5455256;26;20068;-38
2024/04/22 05:12:22;;;;;;;5.00;3.57;;;;;;;3.71;100.00;102609.03;5454632;26;19991;-38
2024/04/22 05:14:47;;;;;;;4.53;3.40;;;;;;;3.84;100.00;102612.25;5455470;26;20388;-38
2024/04/22 05:17:13;;;;;;;5.57;3.03;;;;;;;3.96;100.00;102613.78;5454898;26;20419;-38
2024/04/22 05:19:38;;;;;;;3.40;3.10;;;;;;;4.03;100.00;102614.06;5454861;26;20427;-38
2024/04/22 05:22:03;;;;;;;4.60;3.37;;;;;;;4.09;100.00;102598.25;5454763;26;20001;-38
2024/04/22 05:24:29;;;;;;;3.73;2.83;;;;;;;4.18;100.00;102596.53;5455095;26;19987;-38
2024/04/22 05:26:54;;;;;;;3.65;3.35;;;;;;;4.26;100.00;102601.16;5454721;26;19991;-38
2024/04/22 05:29:19;;;;;;;3.93;3.53;;;;;;;4.36;100.00;102612.69;5455300;26;19999;-38
2024/04/22 05:31:45;;;;;;;3.83;3.20;;;;;;;4.45;100.00;102613.66;5454378;26;20003;-38
2024/04/22 05:36:54;;;;;;;3.65;3.30;;;;;;;4.46;100.00;102605.44;5455785;26;20066;-38
2024/04/22 05:39:19;;;;;;;3.73;3.10;;;;;;;4.50;100.00;102606.84;5455298;26;19999;-38
2024/04/22 05:41:45;;;;;;;4.73;3.17;;;;;;;4.41;100.00;102597.00;5454299;26;19995;-39
2024/04/22 05:44:10;;;;;;;5.13;3.60;;;;;;;4.49;100.00;102615.00;5455129;26;20067;-38
2024/04/22 05:46:35;;;;;;;6.03;3.33;;;;;;;4.42;100.00;102587.13;5454391;26;20011;-38
2024/04/22 05:49:01;;;;;;;4.63;3.50;;;;;;;4.55;100.00;102606.41;5454753;26;19999;-39
2024/04/22 05:51:26;;;;;;;3.10;2.73;;;;;;;4.59;100.00;102610.47;5454166;26;20419;-39
2024/04/22 05:53:51;;;;;;;4.83;3.10;;;;;;;4.52;100.00;102596.81;5454473;26;20308;-39
2024/04/22 05:56:16;;;;;;;3.83;3.10;;;;;;;4.58;100.00;102612.28;5454560;26;20385;-38
2024/04/22 05:58:42;;;;;;;5.53;3.33;;;;;;;4.59;100.00;102605.13;5455253;26;20007;-38
2024/04/22 06:01:08;;;;;;;4.00;3.50;;;;;;;4.64;100.00;102601.00;5454899;26;20006;-38
2024/04/22 06:03:33;;;;;;;4.00;3.17;;;;;;;4.68;100.00;102600.69;5453515;26;19995;-38
2024/04/22 06:05:59;;;;;;;5.32;3.33;;;;;;;4.76;100.00;102598.94;5454990;26;19998;-38
2024/04/22 06:08:24;;;;;;;4.47;3.42;;;;;;;4.80;100.00;102597.66;5454122;26;19994;-38
2024/04/22 06:10:49;;;;;;;5.33;3.77;;;;;;;4.84;100.00;102592.84;5454973;26;20021;-38
2024/04/22 06:13:15;;;;;;;4.13;3.03;;;;;;;5.01;100.00;102589.34;5454032;26;20009;-38
2024/04/22 06:15:43;;;;;;;5.37;3.50;;;;;;;5.05;100.00;102584.50;5454324;26;20009;-38
2024/04/22 06:18:09;;;;;;;4.63;3.10;;;;;;;5.16;100.00;102597.69;5454250;26;20373;-38
2024/04/22 06:20:34;;;;;;;5.45;3.33;;;;;;;5.19;100.00;102580.47;5454179;26;19998;-38
2024/04/22 06:22:59;;;;;;;4.57;3.43;;;;;;;5.22;100.00;102597.09;5454272;26;20315;-38
2024/04/22 06:25:25;;;;;;;5.28;3.38;;;;;;;5.30;100.00;102586.44;5455048;26;20010;-38
2024/04/22 06:27:50;;;;;;;3.90;3.10;;;;;;;5.38;100.00;102591.88;5454132;26;20002;-37
2024/04/22 06:30:16;;;;;;;3.60;2.70;;;;;;;5.43;100.00;102592.25;5454341;26;19994;-38
2024/04/22 06:32:41;;;;;;;4.65;2.92;;;;;;;5.49;100.00;102587.28;5453917;26;20003;-37
2024/04/22 06:35:07;;;;;;;4.67;2.70;;;;;;;5.51;100.00;102585.25;5454022;26;20412;-38
2024/04/22 06:37:32;;;;;;;4.43;3.10;;;;;;;5.57;100.00;102582.81;5453372;26;20343;-37
2024/04/22 06:39:57;;;;;;;3.97;2.63;;;;;;;5.61;100.00;102577.97;5453617;26;20071;-37
2024/04/22 06:42:23;;;;;;;3.27;2.60;;;;;;;5.58;100.00;102572.91;5453311;26;20007;-37
2024/04/22 06:44:48;;;;;;;4.20;2.70;;;;;;;5.72;100.00;102580.41;5453560;26;20013;-37
2024/04/22 06:47:14;;;;;;;3.87;2.40;;;;;;;5.73;100.00;102576.72;5453790;26;20010;-38
2024/04/22 06:49:40;;;;;;;3.20;2.60;;;;;;;5.80;100.00;102579.59;5454027;26;20251;-38
2024/04/22 06:52:08;;;;;;;2.55;2.28;;;;;;;5.86;100.00;102582.53;5453390;26;20023;-38
2024/04/22 06:54:33;;;;;;;5.93;2.80;;;;;;;5.81;100.00;102560.69;5453360;26;20010;-38
2024/04/22 06:56:59;;;;;;;3.95;2.40;;;;;;;5.89;100.00;102552.66;5451536;26;19991;-38
2024/04/22 06:59:24;;;;;;;3.07;2.40;;;;;;;6.02;100.00;102564.88;5454068;26;20064;-38
2024/04/22 07:01:49;;;;;;;4.33;2.67;;;;;;;6.10;100.00;102570.25;5453396;26;19994;-38
2024/04/22 07:04:15;;;;;;;4.80;2.13;;;;;;;6.20;100.00;102571.03;5453376;26;20007;-38
2024/04/22 07:06:40;;;;;;;2.35;2.13;;;;;;;6.27;100.00;102571.22;5452975;26;20013;-38
2024/04/22 07:09:09;;;;;;;3.83;2.30;;;;;;;6.24;100.00;102560.78;5453620;26;20067;-38
2024/04/22 07:11:37;;;;;;;3.70;2.60;;;;;;;6.36;100.00;102560.34;5453208;26;20232;-38
2024/04/22 07:14:03;;;;;;;2.47;1.95;;;;;;;6.43;100.00;102558.66;5453159;26;19991;-38
2024/04/22 07:16:29;;;;;;;3.20;2.23;;;;;;;6.43;100.00;102553.28;5455950;26;19999;-38
2024/04/22 07:18:55;;;;;;;2.97;2.00;;;;;;;6.61;100.00;102568.50;5456985;26;20240;-38
2024/04/22 07:21:21;;;;;;;2.72;2.10;;;;;;;6.74;100.00;102568.88;5456433;26;20002;-38
2024/04/22 07:23:46;;;;;;;3.58;2.13;;;;;;;6.82;100.00;102555.44;5456698;26;20395;-38
2024/04/22 07:26:12;;;;;;;3.08;1.90;;;;;;;6.91;100.00;102551.75;5456370;26;20354;-38
2024/04/22 07:28:37;;;;;;;4.13;1.80;;;;;;;7.05;100.00;102560.19;5456806;26;20003;-38
2024/04/22 07:31:03;;;;;;;4.38;2.10;;;;;;;7.14;100.00;102560.03;5456989;26;19995;-38
2024/04/22 07:33:28;;;;;;;3.10;1.80;;;;;;;7.24;100.00;102557.19;5456442;26;20373;-38
2024/04/22 07:36:01;;;;;;;4.57;1.70;;;;;;;7.27;100.00;102551.50;5456500;26;19995;-37
2024/04/22 07:38:31;;;;;;;2.55;1.83;;;;;;;7.43;100.00;102547.97;5456303;26;20447;-38
2024/04/22 07:40:57;;;;;;;3.55;1.70;;;;;;;7.53;100.00;102537.84;5456154;26;19999;-37
2024/04/22 07:43:22;;;;;;;2.58;1.75;;;;;;;7.64;100.00;102550.13;5455863;26;20010;-37
2024/04/22 07:45:47;;;;;;;2.80;1.60;;;;;;;7.61;100.00;102539.69;5456672;26;19994;-38
2024/04/22 07:48:13;;;;;;;3.37;1.97;;;;;;;7.78;100.00;102549.44;5456463;26;19999;-37
2024/04/22 07:50:38;;;;;;;3.93;1.80;;;;;;;7.85;100.00;102552.28;5456358;26;19998;-37
2024/04/22 07:53:05;;;;;;;2.10;1.80;;;;;;;7.84;100.00;102531.75;5456110;26;20003;-38
2024/04/22 07:55:30;;;;;;;3.38;1.55;;;;;;;8.03;100.00;102542.13;5456150;26;19991;-38
2024/04/22 07:57:56;;;;;;;2.50;1.70;;;;;;;8.22;100.00;102540.91;5456222;26;19994;-38
2024/04/22 08:00:22;;;;;;;4.05;1.55;;;;;;;8.22;100.00;102539.03;5456227;26;19999;-38
2024/04/22 08:02:48;;;;;;;3.13;1.60;;;;;;;8.38;100.00;102553.50;5456056;26;20007;-38
2024/04/22 08:05:13;;;;;;;2.80;1.40;;;;;;;8.47;100.00;102547.06;5456682;26;19995;-38
2024/04/22 08:07:40;;;;;;;3.33;1.63;;;;;;;8.60;100.00;102541.94;5456072;26;19995;-38
2024/04/22 08:10:06;;;;;;;2.95;1.60;;;;;;;8.65;100.00;102544.94;5456441;26;20009;-38
2024/04/22 08:12:32;;;;;;;3.15;1.52;;;;;;;8.72;99.64;102555.84;5455771;26;20006;-38
2024/04/22 08:14:57;;;;;;;3.72;1.40;;;;;;;8.78;100.00;102552.44;5455937;26;20067;-38
2024/04/22 08:17:23;;;;;;;2.10;1.33;;;;;;;8.85;100.00;102550.72;5456087;26;20356;-38
2024/04/22 08:19:48;;;;;;;3.20;1.30;;;;;;;8.88;100.00;102546.81;5456027;26;20006;-38
2024/04/22 08:22:16;;;;;;;3.23;1.30;;;;;;;8.84;97.95;102538.28;5455709;26;20331;-38
2024/04/22 08:24:41;;;;;;;4.47;1.27;;;;;;;8.80;94.73;102536.94;5456003;26;20079;-38
2024/04/22 08:27:07;;;;;;;2.90;1.10;;;;;;;8.93;95.72;102539.03;5455310;26;19991;-38
2024/04/22 08:29:33;;;;;;;3.58;1.17;;;;;;;8.95;95.43;102543.25;5456155;26;20060;-38
2024/04/22 08:31:59;;;;;;;2.28;1.13;;;;;;;9.01;94.92;102542.53;5455405;26;20416;-38
2024/04/22 08:34:24;;;;;;;3.73;1.17;;;;;;;8.99;92.31;102541.88;5455613;26;20005;-38
2024/04/22 08:36:49;;;;;;;8.00;1.30;;;;;;;9.01;94.51;102538.97;5455381;26;20220;-38
2024/04/22 08:39:15;;;;;;;4.57;1.27;;;;;;;8.88;91.55;102552.22;5455275;26;20006;-38
2024/04/22 08:41:40;;;;;;;2.67;1.23;;;;;;;8.94;95.30;102548.84;5455617;26;20067;-38
2024/04/22 08:44:08;;;;;;;3.53;1.33;;;;;;;8.83;96.25;102533.88;5455349;26;20007;-38
2024/04/22 08:46:33;;;;;;;4.35;1.30;;;;;;;8.94;95.51;102544.28;5454861;26;20010;-38
2024/04/22 08:48:58;;;;;;;8.90;1.70;;;;;;;8.86;96.25;102530.81;5455837;26;20002;-38
2024/04/22 08:51:25;;;;;;;4.00;1.30;;;;;;;9.09;97.79;102535.41;5454904;26;20005;-38
2024/04/22 08:53:51;;;;;;;5.07;1.63;;;;;;;9.39;99.30;102531.78;5454921;26;20005;-38
2024/04/22 08:56:21;;;;;;;3.00;1.30;;;;;;;9.44;96.15;102540.16;5455481;26;19995;-39
2024/04/22 08:58:47;;;;;;;2.85;1.13;;;;;;;9.47;96.82;102538.97;5455557;26;20013;-38
2024/04/22 09:01:12;;;;;;;3.25;1.40;;;;;;;9.58;96.93;102541.22;5455635;26;19999;-38
2024/04/22 09:03:38;;;;;;;2.80;1.23;;;;;;;9.62;93.91;102536.31;5455681;26;19998;-38
2024/04/22 09:06:03;;;;;;;3.47;1.10;;;;;;;9.83;94.71;102538.28;5455850;26;20003;-38
2024/04/22 09:08:29;;;;;;;5.07;1.08;;;;;;;9.85;86.62;102522.72;5455084;26;20560;-38
2024/04/22 09:10:57;;;;;;;2.50;0.98;;;;;;;9.90;87.94;102515.72;5455572;26;19995;-38
2024/04/22 09:13:22;;;;;;;3.92;1.02;;;;;;;9.87;87.13;102526.94;5455043;26;19995;-38
2024/04/22 09:15:57;;;;;;;2.63;1.20;;;;;;;9.93;92.72;102517.25;5455197;26;20002;-38
2024/04/22 09:18:25;;;;;;;2.83;1.33;;;;;;;9.79;88.13;102517.03;5454950;26;20295;-38
2024/04/22 09:20:51;;;;;;;4.18;1.30;;;;;;;9.85;88.48;102503.81;5455026;26;20066;-38
2024/04/22 09:23:17;;;;;;;3.45;1.15;;;;;;;10.21;91.94;102520.13;5454854;26;20423;-38
2024/04/22 09:25:43;;;;;;;5.13;1.10;;;;;;;10.16;89.04;102517.97;5454970;26;19995;-38
2024/04/22 09:28:10;;;;;;;3.90;1.10;;;;;;;10.10;89.63;102524.13;5454341;26;20458;-38
2024/04/22 09:30:40;;;;;;;2.50;1.02;;;;;;;10.03;87.81;102513.22;5454561;26;20371;-38
2024/04/22 09:33:08;;;;;;;3.92;1.40;;;;;;;9.95;86.16;102515.19;5454429;26;19999;-38
2024/04/22 09:35:35;;;;;;;4.10;1.10;;;;;;;9.93;86.71;102512.66;5455147;26;19995;-38
2024/04/22 09:38:03;;;;;;;3.70;1.00;;;;;;;10.25;88.29;102516.06;5453122;26;20013;-38
2024/04/22 09:40:29;;;;;;;4.35;1.15;;;;;;;10.46;86.00;102515.28;5455121;26;19999;-38
2024/04/22 09:42:56;;;;;;;4.30;1.27;;;;;;;10.29;80.84;102507.34;5454412;26;20007;-39
2024/04/22 09:45:21;;;;;;;4.68;1.08;;;;;;;10.35;83.35;102503.09;5454524;26;20384;-39
2024/04/22 09:47:49;;;;;;;4.35;1.00;;;;;;;10.36;84.22;102495.81;5454416;26;19995;-39
2024/04/22 09:50:16;;;;;;;4.80;1.40;;;;;;;10.20;82.21;102494.97;5454445;26;20413;-37
2024/04/22 09:52:41;;;;;;;3.05;1.08;;;;;;;10.34;85.09;102492.44;5454412;26;20068;-38
2024/04/22 09:55:07;;;;;;;3.75;1.05;;;;;;;10.45;80.08;102487.41;5455107;26;20003;-38
2024/04/22 09:57:39;;;;;;;5.03;1.15;;;;;;;10.57;80.68;102485.84;5454580;26;20045;-38
2024/04/22 10:00:07;;;;;;;2.83;1.02;;;;;;;10.41;75.30;102486.09;5454677;26;20027;-38
2024/04/22 10:02:32;;;;;;;5.18;1.50;;;;;;;10.67;80.40;102476.59;5454556;26;19999;-39
2024/04/22 10:04:58;;;;;;;4.03;1.20;;;;;;;10.57;74.48;102490.44;5455134;26;20006;-39
2024/04/22 10:07:24;;;;;;;4.20;1.20;;;;;;;10.40;71.67;102476.31;5454732;26;20127;-39
2024/04/22 10:09:50;;;;;;;3.83;1.20;;;;;;;10.27;73.90;102470.72;5455296;26;20326;-39
2024/04/22 10:12:24;;;;;;;3.05;1.00;;;;;;;10.52;77.57;102474.78;5454150;26;20006;-39
2024/04/22 10:14:49;;;;;;;1.95;0.68;;;;;;;10.88;74.24;102476.59;5454772;26;19998;-39
2024/04/22 10:17:17;;;;;;;1.58;0.80;;;;;;;10.95;68.56;102477.50;5454279;26;20002;-39
2024/04/22 10:19:44;;;;;;;3.08;0.70;;;;;;;10.80;64.10;102463.22;5454541;26;20391;-39
2024/04/22 10:22:13;;;;;;;3.50;1.00;;;;;;;10.96;65.66;102454.81;5454350;26;20006;-39
2024/04/22 10:24:42;;;;;;;2.75;1.00;;;;;;;11.18;63.40;102452.09;5454784;26;20435;-39
2024/04/22 10:27:09;;;;;;;1.83;0.80;;;;;;;11.28;65.87;102441.78;5454447;26;20059;-39
2024/04/22 10:29:35;;;;;;;3.05;0.93;;;;;;;11.56;66.39;102464.25;5454654;26;20064;-39
2024/04/22 10:32:00;;;;;;;1.70;0.90;;;;;;;11.46;62.65;102455.63;5453779;26;19999;-39
2024/04/22 10:34:27;;;;;;;4.18;0.95;;;;;;;11.22;63.30;102458.78;5453976;26;20009;-39
2024/04/22 10:36:52;;;;;;;2.08;0.85;;;;;;;11.09;64.70;102449.53;5453737;26;19991;-39
2024/04/22 10:39:18;;;;;;;2.58;0.90;;;;;;;10.80;57.14;102450.50;5453925;26;20072;-39
2024/04/22 10:41:43;;;;;;;2.08;1.05;;;;;;;11.05;61.11;102442.00;5453268;26;19995;-39
2024/04/22 10:44:09;;;;;;;1.95;0.70;;;;;;;11.23;60.32;102438.81;5454188;26;20489;-39
2024/04/22 10:46:36;;;;;;;1.52;0.70;;;;;;;11.19;56.14;102442.94;5453762;26;20003;-39
2024/04/22 10:49:01;;;;;;;2.08;0.70;;;;;;;11.23;59.84;102452.34;5453461;26;20319;-39
2024/04/22 10:51:26;;;;;;;2.33;0.80;;;;;;;11.19;61.49;102443.78;5453401;26;19999;-40
2024/04/22 10:53:54;;;;;;;2.57;0.90;;;;;;;11.07;61.38;102446.16;5453296;26;19992;-38
2024/04/22 10:56:21;;;;;;;1.23;0.75;;;;;;;11.04;56.49;102440.31;5453670;26;19991;-39
2024/04/22 10:58:47;;;;;;;2.25;0.80;;;;;;;11.18;59.20;102441.28;5453712;26;19995;-38
2024/04/22 11:01:13;;;;;;;1.63;0.70;;;;;;;11.24;58.55;102435.91;5453658;26;20006;-38
2024/04/22 11:03:40;;;;;;;2.70;0.70;;;;;;;11.16;52.48;102429.78;5453613;26;20058;-38
2024/04/22 11:06:10;;;;;;;3.70;1.00;;;;;;;11.00;56.19;102433.63;5453794;26;20006;-38
2024/04/22 11:08:36;;;;;;;2.88;0.95;;;;;;;10.80;54.51;102426.16;5453397;26;20003;-38
2024/04/22 11:11:02;;;;;;;1.58;0.80;;;;;;;10.51;53.73;102432.53;5454130;26;20003;-38
2024/04/22 11:13:28;;;;;;;3.05;1.00;;;;;;;10.39;64.94;102452.97;5453328;26;20006;-38
2024/04/22 11:15:53;;;;;;;2.58;1.20;;;;;;;10.07;70.52;102451.53;5453353;26;19999;-46
2024/04/22 11:18:20;;;;;;;3.27;1.30;;;;;;;9.87;75.69;102451.28;5453350;26;20338;-38
2024/04/22 11:20:46;;;;;;;5.32;1.13;;;;;;;9.65;78.99;102449.50;5453376;26;20311;-38
2024/04/22 11:23:12;;;;;;;4.03;1.40;;;;;;;9.25;85.30;102438.94;5453268;26;19995;-38
2024/04/22 11:25:37;;;;;;;2.10;1.02;;;;;;;9.33;83.94;102435.31;5452876;26;20003;-38
2024/04/22 11:28:04;;;;;;;2.42;1.00;;;;;;;9.52;84.27;102452.84;5452876;26;20007;-38